createdAt,value
2022-12-22T00:03:03.099Z,22.90
2022-12-22T00:08:26.971Z,22.80
2022-12-22T00:13:49.580Z,22.90
2022-12-22T00:19:12.562Z,22.80
2022-12-22T00:24:35.500Z,22.70
2022-12-22T00:30:01.962Z,22.60
2022-12-22T00:35:25.200Z,22.50
2022-12-22T00:40:48.399Z,22.40
2022-12-22T00:46:12.160Z,22.30
2022-12-22T00:51:35.576Z,22.30
2022-12-22T00:56:58.390Z,22.20
2022-12-22T01:02:20.964Z,22.10
2022-12-22T01:07:46.163Z,22.00
2022-12-22T01:13:08.810Z,21.90
2022-12-22T01:18:31.370Z,21.90
2022-12-22T01:23:54.541Z,21.80
2022-12-22T01:29:17.302Z,21.80
2022-12-22T01:34:39.810Z,21.70
2022-12-22T01:40:02.921Z,21.70
2022-12-22T01:45:47.491Z,21.60
2022-12-22T01:51:10.131Z,21.60
2022-12-22T01:56:33.409Z,21.50
2022-12-22T02:01:57.396Z,21.50
2022-12-22T02:07:37.751Z,21.50
2022-12-22T02:13:35.920Z,21.40
2022-12-22T02:18:58.782Z,21.40
2022-12-22T02:24:44.563Z,21.30
2022-12-22T02:30:15.104Z,21.60
2022-12-22T02:35:37.861Z,21.90
2022-12-22T02:41:06.552Z,22.20
2022-12-22T02:46:47.579Z,22.40
2022-12-22T02:52:17.969Z,22.60
2022-12-22T02:57:40.939Z,22.60
2022-12-22T03:03:03.629Z,22.70
2022-12-22T03:08:26.651Z,22.80
2022-12-22T03:13:49.213Z,22.70
2022-12-22T03:19:11.759Z,22.80
2022-12-22T03:24:34.521Z,22.80
2022-12-22T03:29:38.465Z,22.90
2022-12-22T03:34:42.279Z,22.90
2022-12-22T03:39:46.213Z,23.00
2022-12-22T03:45:08.970Z,23.00
2022-12-22T03:50:13.329Z,23.00
2022-12-22T03:55:17.250Z,23.10
2022-12-22T04:00:21.567Z,23.10
2022-12-22T04:05:26.271Z,23.00
2022-12-22T04:10:49.191Z,22.90
2022-12-22T04:15:53.120Z,22.90
2022-12-22T04:20:57.051Z,22.70
2022-12-22T04:26:01.198Z,22.70
2022-12-22T04:31:05.732Z,22.60
2022-12-22T04:36:10.862Z,22.50
2022-12-22T04:41:14.816Z,22.40
2022-12-22T04:46:18.914Z,22.30
2022-12-22T04:51:22.985Z,22.30
2022-12-22T04:56:27.017Z,22.20
2022-12-22T05:01:30.968Z,22.20
2022-12-22T05:06:35.010Z,22.10
2022-12-22T05:11:39.225Z,22.00
2022-12-22T05:16:43.193Z,22.00
2022-12-22T05:21:47.386Z,21.90
2022-12-22T05:26:51.222Z,21.90
2022-12-22T05:31:55.147Z,21.80
2022-12-22T05:36:59.272Z,21.80
2022-12-22T05:42:03.210Z,21.70
2022-12-22T05:47:07.144Z,21.70
2022-12-22T05:52:11.177Z,21.60
2022-12-22T05:57:15.516Z,21.60
2022-12-22T06:02:19.621Z,21.50
2022-12-22T06:07:23.801Z,21.50
2022-12-22T06:12:27.829Z,21.50
2022-12-22T06:17:32.052Z,21.50
2022-12-22T06:22:36.188Z,21.70
2022-12-22T06:27:40.136Z,21.90
2022-12-22T06:32:44.261Z,22.20
2022-12-22T06:37:48.198Z,22.40
2022-12-22T06:43:10.777Z,22.50
2022-12-22T06:48:15.495Z,22.60
2022-12-22T06:53:19.736Z,22.70
2022-12-22T06:58:23.866Z,22.70
2022-12-22T07:03:28.129Z,22.80
2022-12-22T07:08:32.225Z,22.80
2022-12-22T07:13:36.374Z,22.80
2022-12-22T07:18:42.660Z,22.80
2022-12-22T07:23:46.623Z,22.80
2022-12-22T07:28:50.713Z,22.90
2022-12-22T07:33:54.650Z,22.90
2022-12-22T07:38:58.574Z,22.90
2022-12-22T07:44:04.587Z,22.80
2022-12-22T07:49:27.089Z,22.70
2022-12-22T07:54:32.317Z,22.70
2022-12-22T07:59:38.348Z,22.60
2022-12-22T08:04:42.194Z,22.60
2022-12-22T08:09:46.402Z,22.50
2022-12-22T08:14:50.537Z,22.30
2022-12-22T08:19:55.801Z,22.20
2022-12-22T08:24:59.648Z,22.20
2022-12-22T08:30:03.855Z,22.20
2022-12-22T08:35:09.979Z,22.30
2022-12-22T08:40:23.167Z,22.20
2022-12-22T08:45:27.018Z,22.00
2022-12-22T08:50:30.948Z,22.00
2022-12-22T08:55:35.278Z,21.90
2022-12-22T09:00:39.134Z,21.90
2022-12-22T16:12:54.457Z,21.90
2022-12-22T16:18:02.893Z,22.20
2022-12-22T16:23:13.101Z,22.30
2022-12-22T16:28:21.732Z,22.30
2022-12-22T16:33:25.540Z,22.30
2022-12-22T16:38:29.495Z,22.30
2022-12-22T16:49:01.909Z,22.40
2022-12-22T16:54:06.338Z,22.50
2022-12-22T16:59:10.326Z,22.50
2022-12-22T17:04:28.749Z,22.50
2022-12-22T17:09:44.208Z,22.60
2022-12-22T17:14:49.076Z,22.60
2022-12-22T17:19:53.215Z,22.70
2022-12-22T17:25:01.727Z,22.70
2022-12-22T17:30:18.181Z,22.70
2022-12-22T17:35:25.704Z,22.70
2022-12-22T17:40:31.274Z,22.70
2022-12-22T17:45:35.188Z,22.70
2022-12-22T17:50:40.021Z,22.70
2022-12-22T18:01:27.330Z,22.60
2022-12-22T18:06:35.125Z,22.60
2022-12-22T18:11:43.853Z,22.50
2022-12-22T18:16:49.909Z,22.40
2022-12-22T18:21:54.377Z,22.50
2022-12-22T18:26:58.186Z,22.50
2022-12-22T18:32:02.711Z,22.40
2022-12-22T18:37:14.256Z,22.40
2022-12-22T18:42:23.515Z,22.40
2022-12-22T18:47:27.878Z,22.30
2022-12-22T18:52:31.984Z,22.30
2022-12-22T18:57:36.224Z,22.20
2022-12-22T19:02:40.975Z,22.10
2022-12-22T19:07:46.421Z,22.10
2022-12-22T19:12:55.048Z,22.00
2022-12-22T19:17:59.547Z,22.10
2022-12-22T19:23:04.162Z,22.00
2022-12-22T19:28:15.175Z,22.00
2022-12-22T19:33:42.377Z,21.90
2022-12-22T19:38:50.505Z,21.90
2022-12-22T19:43:55.579Z,21.90
2022-12-22T19:49:00.331Z,21.80
2022-12-22T19:54:04.876Z,21.80
2022-12-22T19:59:26.930Z,21.80
2022-12-22T20:04:38.318Z,21.70
2022-12-22T20:09:46.547Z,21.70
2022-12-22T20:14:51.409Z,21.70
2022-12-22T20:19:56.572Z,21.70
2022-12-22T20:25:02.145Z,21.60
2022-12-22T20:30:08.888Z,21.70
2022-12-22T20:35:13.579Z,21.60
2022-12-22T20:40:28.318Z,21.70
2022-12-22T20:45:32.872Z,21.70
2022-12-22T20:50:38.665Z,21.60
2022-12-22T20:55:44.545Z,21.60
2022-12-22T21:00:50.810Z,21.60
2022-12-22T21:05:55.279Z,21.50
2022-12-22T21:11:00.842Z,21.60
2022-12-22T21:16:05.484Z,21.60
2022-12-22T21:21:11.644Z,21.60
2022-12-22T21:26:31.385Z,21.50
2022-12-22T21:31:35.389Z,21.50
2022-12-22T21:36:40.841Z,21.40
2022-12-22T21:42:03.725Z,21.50
2022-12-22T21:47:13.472Z,21.40
2022-12-22T21:52:17.300Z,21.50
2022-12-22T21:57:21.345Z,21.50
2022-12-22T22:02:25.360Z,21.40
2022-12-22T22:07:29.502Z,21.40
2022-12-22T22:12:33.612Z,21.40
2022-12-22T22:17:38.704Z,21.40
2022-12-22T22:22:43.149Z,21.30
2022-12-22T22:27:48.258Z,21.20
2022-12-22T22:32:53.580Z,21.40
2022-12-22T22:37:57.582Z,21.40
2022-12-22T22:43:01.610Z,21.30
2022-12-22T22:48:10.660Z,21.30
2022-12-22T22:53:15.717Z,21.30
2022-12-22T22:58:19.644Z,21.30
2022-12-22T23:03:23.821Z,21.30
2022-12-22T23:08:28.129Z,21.30
2022-12-22T23:13:32.792Z,21.30
2022-12-22T23:18:36.663Z,21.20
2022-12-22T23:23:40.833Z,21.20
2022-12-22T23:28:44.763Z,21.20
2022-12-22T23:33:48.692Z,21.20
2022-12-22T23:38:52.755Z,21.10
2022-12-22T23:43:56.965Z,21.30
2022-12-22T23:49:00.892Z,21.60
2022-12-22T23:54:05.133Z,21.90
2022-12-22T23:59:09.159Z,22.20
